sensor_id;sensor_type;location;lat;lon;timestamp;temperature;humidity
44773;DHT22;30492;52.088;5.122;2022-07-03T00:01:37;20.80;99.90
44773;DHT22;30492;52.088;5.122;2022-07-03T00:04:42;20.70;99.90
44773;DHT22;30492;52.088;5.122;2022-07-03T00:07:48;20.70;99.90
44773;DHT22;30492;52.088;5.122;2022-07-03T00:10:53;20.60;99.90
44773;DHT22;30492;52.088;5.122;2022-07-03T00:13:58;20.60;99.90
44773;DHT22;30492;52.088;5.122;2022-07-03T00:17:05;20.60;99.90
44773;DHT22;30492;52.088;5.122;2022-07-03T00:20:11;20.50;99.90
44773;DHT22;30492;52.088;5.122;2022-07-03T00:23:17;20.50;99.90
44773;DHT22;30492;52.088;5.122;2022-07-03T00:26:24;20.50;99.90
44773;DHT22;30492;52.088;5.122;2022-07-03T00:29:34;20.50;99.90
44773;DHT22;30492;52.088;5.122;2022-07-03T00:32:41;20.40;99.90
44773;DHT22;30492;52.088;5.122;2022-07-03T00:35:48;20.40;99.90
44773;DHT22;30492;52.088;5.122;2022-07-03T00:38:56;20.40;99.90
44773;DHT22;30492;52.088;5.122;2022-07-03T00:42:04;20.30;99.90
44773;DHT22;30492;52.088;5.122;2022-07-03T00:45:12;20.30;99.90
44773;DHT22;30492;52.088;5.122;2022-07-03T00:48:22;20.30;99.90
44773;DHT22;30492;52.088;5.122;2022-07-03T00:51:29;20.20;99.90
44773;DHT22;30492;52.088;5.122;2022-07-03T00:54:34;20.20;99.90
44773;DHT22;30492;52.088;5.122;2022-07-03T00:57:44;20.20;99.90
44773;DHT22;30492;52.088;5.122;2022-07-03T01:00:52;20.10;99.90
44773;DHT22;30492;52.088;5.122;2022-07-03T01:04:08;20.10;99.90
44773;DHT22;30492;52.088;5.122;2022-07-03T01:07:21;20.00;99.90
44773;DHT22;30492;52.088;5.122;2022-07-03T01:10:37;20.10;99.90
44773;DHT22;30492;52.088;5.122;2022-07-03T01:13:48;20.00;99.90
44773;DHT22;30492;52.088;5.122;2022-07-03T01:16:59;20.00;99.90
44773;DHT22;30492;52.088;5.122;2022-07-03T01:20:07;20.00;99.90
44773;DHT22;30492;52.088;5.122;2022-07-03T01:23:24;20.00;99.90
44773;DHT22;30492;52.088;5.122;2022-07-03T01:26:39;20.00;99.90
44773;DHT22;30492;52.088;5.122;2022-07-03T01:29:52;20.00;99.90
44773;DHT22;30492;52.088;5.122;2022-07-03T01:33:04;19.90;99.90
44773;DHT22;30492;52.088;5.122;2022-07-03T01:36:13;19.90;99.90
44773;DHT22;30492;52.088;5.122;2022-07-03T01:39:21;19.80;99.90
44773;DHT22;30492;52.088;5.122;2022-07-03T01:42:33;19.80;99.90
44773;DHT22;30492;52.088;5.122;2022-07-03T01:45:41;19.80;99.90
44773;DHT22;30492;52.088;5.122;2022-07-03T01:48:47;19.80;99.90
44773;DHT22;30492;52.088;5.122;2022-07-03T01:51:55;19.70;99.90
44773;DHT22;30492;52.088;5.122;2022-07-03T01:55:01;19.70;99.90
44773;DHT22;30492;52.088;5.122;2022-07-03T01:58:09;19.70;99.90
44773;DHT22;30492;52.088;5.122;2022-07-03T02:01:21;19.60;99.90
44773;DHT22;30492;52.088;5.122;2022-07-03T02:04:32;19.40;99.90
44773;DHT22;30492;52.088;5.122;2022-07-03T02:07:41;19.50;99.90
44773;DHT22;30492;52.088;5.122;2022-07-03T02:11:02;19.60;99.90
44773;DHT22;30492;52.088;5.122;2022-07-03T02:14:14;19.50;99.90
44773;DHT22;30492;52.088;5.122;2022-07-03T02:17:21;19.50;99.90
44773;DHT22;30492;52.088;5.122;2022-07-03T02:20:29;19.50;99.90
44773;DHT22;30492;52.088;5.122;2022-07-03T02:23:57;19.50;99.90
44773;DHT22;30492;52.088;5.122;2022-07-03T02:27:06;19.50;99.90
44773;DHT22;30492;52.088;5.122;2022-07-03T02:30:16;19.40;99.90
44773;DHT22;30492;52.088;5.122;2022-07-03T02:33:25;19.40;99.90
44773;DHT22;30492;52.088;5.122;2022-07-03T02:36:33;19.30;99.90
44773;DHT22;30492;52.088;5.122;2022-07-03T02:39:43;19.20;99.90
44773;DHT22;30492;52.088;5.122;2022-07-03T02:42:59;19.20;99.90
44773;DHT22;30492;52.088;5.122;2022-07-03T02:46:14;19.20;99.90
44773;DHT22;30492;52.088;5.122;2022-07-03T02:49:58;19.20;99.90
44773;DHT22;30492;52.088;5.122;2022-07-03T02:53:16;19.10;99.90
44773;DHT22;30492;52.088;5.122;2022-07-03T02:56:32;19.10;99.90
44773;DHT22;30492;52.088;5.122;2022-07-03T02:59:45;19.10;99.90
44773;DHT22;30492;52.088;5.122;2022-07-03T03:02:58;19.00;99.90
44773;DHT22;30492;52.088;5.122;2022-07-03T03:06:12;18.90;99.90
44773;DHT22;30492;52.088;5.122;2022-07-03T03:09:24;18.80;99.90
44773;DHT22;30492;52.088;5.122;2022-07-03T03:12:34;18.90;99.90
44773;DHT22;30492;52.088;5.122;2022-07-03T03:15:48;18.90;99.90
44773;DHT22;30492;52.088;5.122;2022-07-03T03:18:58;18.90;99.90
44773;DHT22;30492;52.088;5.122;2022-07-03T03:22:07;18.90;99.90
44773;DHT22;30492;52.088;5.122;2022-07-03T03:25:14;18.90;99.90
44773;DHT22;30492;52.088;5.122;2022-07-03T03:28:20;18.90;99.90
44773;DHT22;30492;52.088;5.122;2022-07-03T03:31:26;18.90;99.90
44773;DHT22;30492;52.088;5.122;2022-07-03T03:34:33;19.00;99.90
44773;DHT22;30492;52.088;5.122;2022-07-03T03:37:38;18.90;99.90
44773;DHT22;30492;52.088;5.122;2022-07-03T03:40:44;18.90;99.90
44773;DHT22;30492;52.088;5.122;2022-07-03T03:43:49;18.90;99.90
44773;DHT22;30492;52.088;5.122;2022-07-03T03:46:55;18.80;99.90
44773;DHT22;30492;52.088;5.122;2022-07-03T03:50:02;18.80;99.90
44773;DHT22;30492;52.088;5.122;2022-07-03T03:53:07;18.90;99.90
44773;DHT22;30492;52.088;5.122;2022-07-03T03:56:12;18.90;99.90
44773;DHT22;30492;52.088;5.122;2022-07-03T03:59:18;18.90;99.90
44773;DHT22;30492;52.088;5.122;2022-07-03T04:02:23;18.80;99.90
44773;DHT22;30492;52.088;5.122;2022-07-03T04:05:30;18.80;99.90
44773;DHT22;30492;52.088;5.122;2022-07-03T04:08:35;18.90;99.90
44773;DHT22;30492;52.088;5.122;2022-07-03T04:11:40;18.80;99.90
44773;DHT22;30492;52.088;5.122;2022-07-03T04:14:45;18.80;99.90
44773;DHT22;30492;52.088;5.122;2022-07-03T04:17:50;18.80;99.90
44773;DHT22;30492;52.088;5.122;2022-07-03T04:20:57;18.80;99.90
44773;DHT22;30492;52.088;5.122;2022-07-03T04:24:02;18.80;99.90
44773;DHT22;30492;52.088;5.122;2022-07-03T04:27:07;18.70;99.90
44773;DHT22;30492;52.088;5.122;2022-07-03T04:30:13;18.60;99.90
44773;DHT22;30492;52.088;5.122;2022-07-03T04:33:18;18.60;99.90
44773;DHT22;30492;52.088;5.122;2022-07-03T04:36:24;18.60;99.90
44773;DHT22;30492;52.088;5.122;2022-07-03T04:39:29;18.60;99.90
44773;DHT22;30492;52.088;5.122;2022-07-03T04:42:34;18.60;99.90
44773;DHT22;30492;52.088;5.122;2022-07-03T04:45:40;18.60;99.90
44773;DHT22;30492;52.088;5.122;2022-07-03T04:48:45;18.40;99.90
44773;DHT22;30492;52.088;5.122;2022-07-03T04:51:52;18.50;99.90
44773;DHT22;30492;52.088;5.122;2022-07-03T04:54:56;18.50;99.90
44773;DHT22;30492;52.088;5.122;2022-07-03T04:58:01;18.60;99.90
44773;DHT22;30492;52.088;5.122;2022-07-03T05:01:07;18.70;99.90
44773;DHT22;30492;52.088;5.122;2022-07-03T05:04:12;18.80;99.90
44773;DHT22;30492;52.088;5.122;2022-07-03T05:07:18;18.70;99.90
44773;DHT22;30492;52.088;5.122;2022-07-03T05:10:23;18.70;99.90
44773;DHT22;30492;52.088;5.122;2022-07-03T05:13:28;18.80;99.90
44773;DHT22;30492;52.088;5.122;2022-07-03T05:16:33;18.80;99.90
44773;DHT22;30492;52.088;5.122;2022-07-03T05:19:38;18.90;99.90
44773;DHT22;30492;52.088;5.122;2022-07-03T05:22:45;18.90;99.90
44773;DHT22;30492;52.088;5.122;2022-07-03T05:25:50;18.90;99.90
44773;DHT22;30492;52.088;5.122;2022-07-03T05:28:55;18.80;99.90
44773;DHT22;30492;52.088;5.122;2022-07-03T05:32:00;18.70;99.90
44773;DHT22;30492;52.088;5.122;2022-07-03T05:35:06;18.60;99.90
44773;DHT22;30492;52.088;5.122;2022-07-03T05:38:13;18.70;99.90
44773;DHT22;30492;52.088;5.122;2022-07-03T05:41:38;18.80;99.90
44773;DHT22;30492;52.088;5.122;2022-07-03T05:44:43;18.80;99.90
44773;DHT22;30492;52.088;5.122;2022-07-03T05:47:48;18.90;99.90
44773;DHT22;30492;52.088;5.122;2022-07-03T05:50:53;18.90;99.90
44773;DHT22;30492;52.088;5.122;2022-07-03T05:53:59;19.00;99.90
44773;DHT22;30492;52.088;5.122;2022-07-03T05:57:05;19.10;99.90
44773;DHT22;30492;52.088;5.122;2022-07-03T06:00:11;19.30;99.90
44773;DHT22;30492;52.088;5.122;2022-07-03T06:03:17;19.20;99.90
44773;DHT22;30492;52.088;5.122;2022-07-03T06:06:22;19.30;99.90
44773;DHT22;30492;52.088;5.122;2022-07-03T06:09:28;19.30;99.90
44773;DHT22;30492;52.088;5.122;2022-07-03T06:12:33;19.30;99.90
44773;DHT22;30492;52.088;5.122;2022-07-03T06:15:38;19.30;99.90
44773;DHT22;30492;52.088;5.122;2022-07-03T06:18:43;19.40;99.90
44773;DHT22;30492;52.088;5.122;2022-07-03T06:21:48;19.50;99.90
44773;DHT22;30492;52.088;5.122;2022-07-03T06:24:55;19.40;99.90
44773;DHT22;30492;52.088;5.122;2022-07-03T06:28:00;19.50;99.90
44773;DHT22;30492;52.088;5.122;2022-07-03T06:31:05;19.60;99.90
44773;DHT22;30492;52.088;5.122;2022-07-03T06:34:09;19.70;99.90
44773;DHT22;30492;52.088;5.122;2022-07-03T06:37:14;19.90;99.90
44773;DHT22;30492;52.088;5.122;2022-07-03T06:40:21;20.10;99.90
44773;DHT22;30492;52.088;5.122;2022-07-03T06:43:26;20.30;99.90
44773;DHT22;30492;52.088;5.122;2022-07-03T06:46:31;20.50;99.90
44773;DHT22;30492;52.088;5.122;2022-07-03T06:49:36;20.50;99.90
44773;DHT22;30492;52.088;5.122;2022-07-03T06:52:41;20.50;99.90
44773;DHT22;30492;52.088;5.122;2022-07-03T06:55:47;20.50;99.90
44773;DHT22;30492;52.088;5.122;2022-07-03T06:58:52;20.40;99.90
44773;DHT22;30492;52.088;5.122;2022-07-03T07:01:57;20.60;99.90
44773;DHT22;30492;52.088;5.122;2022-07-03T07:05:03;20.70;99.90
44773;DHT22;30492;52.088;5.122;2022-07-03T07:08:08;20.70;99.90
44773;DHT22;30492;52.088;5.122;2022-07-03T07:11:15;20.70;99.90
44773;DHT22;30492;52.088;5.122;2022-07-03T07:14:20;20.70;99.90
44773;DHT22;30492;52.088;5.122;2022-07-03T07:17:25;20.90;99.90
44773;DHT22;30492;52.088;5.122;2022-07-03T07:20:30;21.00;99.90
44773;DHT22;30492;52.088;5.122;2022-07-03T07:23:35;21.20;99.90
44773;DHT22;30492;52.088;5.122;2022-07-03T07:26:41;21.40;99.90
44773;DHT22;30492;52.088;5.122;2022-07-03T07:29:46;21.60;99.90
44773;DHT22;30492;52.088;5.122;2022-07-03T07:32:51;21.70;99.90
44773;DHT22;30492;52.088;5.122;2022-07-03T07:35:56;21.90;99.90
44773;DHT22;30492;52.088;5.122;2022-07-03T07:39:02;22.00;99.90
44773;DHT22;30492;52.088;5.122;2022-07-03T07:42:08;22.10;99.90
44773;DHT22;30492;52.088;5.122;2022-07-03T07:45:14;22.20;99.90
44773;DHT22;30492;52.088;5.122;2022-07-03T07:48:19;22.40;99.90
44773;DHT22;30492;52.088;5.122;2022-07-03T07:51:24;22.40;99.90
44773;DHT22;30492;52.088;5.122;2022-07-03T07:54:29;22.30;99.90
44773;DHT22;30492;52.088;5.122;2022-07-03T07:57:36;22.40;99.90
44773;DHT22;30492;52.088;5.122;2022-07-03T08:00:42;22.20;99.90
44773;DHT22;30492;52.088;5.122;2022-07-03T08:04:07;22.20;99.90
44773;DHT22;30492;52.088;5.122;2022-07-03T08:07:32;22.10;99.90
44773;DHT22;30492;52.088;5.122;2022-07-03T08:10:38;22.40;99.90
44773;DHT22;30492;52.088;5.122;2022-07-03T08:13:45;22.40;99.90
44773;DHT22;30492;52.088;5.122;2022-07-03T08:16:50;22.60;99.90
44773;DHT22;30492;52.088;5.122;2022-07-03T08:19:55;22.90;99.90
44773;DHT22;30492;52.088;5.122;2022-07-03T08:23:01;22.90;99.90
44773;DHT22;30492;52.088;5.122;2022-07-03T08:26:06;22.90;99.90
44773;DHT22;30492;52.088;5.122;2022-07-03T08:29:12;23.20;99.90
44773;DHT22;30492;52.088;5.122;2022-07-03T08:32:17;23.40;99.90
44773;DHT22;30492;52.088;5.122;2022-07-03T08:35:23;23.50;99.90
44773;DHT22;30492;52.088;5.122;2022-07-03T08:38:31;23.70;99.90
44773;DHT22;30492;52.088;5.122;2022-07-03T08:41:39;23.80;99.90
44773;DHT22;30492;52.088;5.122;2022-07-03T08:44:46;23.80;99.90
44773;DHT22;30492;52.088;5.122;2022-07-03T08:47:54;23.90;99.90
44773;DHT22;30492;52.088;5.122;2022-07-03T08:51:00;23.70;99.90
44773;DHT22;30492;52.088;5.122;2022-07-03T08:54:06;23.70;99.90
44773;DHT22;30492;52.088;5.122;2022-07-03T08:57:12;23.70;99.90
44773;DHT22;30492;52.088;5.122;2022-07-03T09:00:19;23.60;99.90
44773;DHT22;30492;52.088;5.122;2022-07-03T09:03:24;23.50;99.90
44773;DHT22;30492;52.088;5.122;2022-07-03T09:06:31;23.10;99.90
44773;DHT22;30492;52.088;5.122;2022-07-03T09:09:39;22.80;99.90
44773;DHT22;30492;52.088;5.122;2022-07-03T09:12:48;23.10;99.90
44773;DHT22;30492;52.088;5.122;2022-07-03T09:15:55;23.30;99.90
44773;DHT22;30492;52.088;5.122;2022-07-03T09:19:00;23.50;99.90
44773;DHT22;30492;52.088;5.122;2022-07-03T09:22:18;23.60;99.90
44773;DHT22;30492;52.088;5.122;2022-07-03T09:25:24;23.80;99.90
44773;DHT22;30492;52.088;5.122;2022-07-03T09:28:44;24.00;99.90
44773;DHT22;30492;52.088;5.122;2022-07-03T09:31:55;23.80;99.90
44773;DHT22;30492;52.088;5.122;2022-07-03T09:35:17;23.50;99.90
44773;DHT22;30492;52.088;5.122;2022-07-03T09:38:23;23.30;99.90
44773;DHT22;30492;52.088;5.122;2022-07-03T09:41:29;23.40;99.90
44773;DHT22;30492;52.088;5.122;2022-07-03T09:44:38;23.40;99.90
44773;DHT22;30492;52.088;5.122;2022-07-03T09:47:46;23.50;99.90
44773;DHT22;30492;52.088;5.122;2022-07-03T09:51:18;23.60;99.90
44773;DHT22;30492;52.088;5.122;2022-07-03T09:54:27;23.90;99.90
44773;DHT22;30492;52.088;5.122;2022-07-03T09:57:32;24.00;99.90
44773;DHT22;30492;52.088;5.122;2022-07-03T10:00:37;24.10;99.90
44773;DHT22;30492;52.088;5.122;2022-07-03T10:03:47;24.10;99.90
44773;DHT22;30492;52.088;5.122;2022-07-03T10:06:55;24.10;99.90
44773;DHT22;30492;52.088;5.122;2022-07-03T10:10:00;23.90;99.90
44773;DHT22;30492;52.088;5.122;2022-07-03T10:13:06;23.90;99.90
44773;DHT22;30492;52.088;5.122;2022-07-03T10:16:12;23.80;99.90
44773;DHT22;30492;52.088;5.122;2022-07-03T10:19:21;23.80;99.90
44773;DHT22;30492;52.088;5.122;2022-07-03T10:22:27;23.70;99.90
44773;DHT22;30492;52.088;5.122;2022-07-03T10:25:33;23.60;99.90
44773;DHT22;30492;52.088;5.122;2022-07-03T10:28:39;23.70;99.90
44773;DHT22;30492;52.088;5.122;2022-07-03T10:31:48;23.50;99.90
44773;DHT22;30492;52.088;5.122;2022-07-03T10:34:56;23.30;99.90
44773;DHT22;30492;52.088;5.122;2022-07-03T10:38:16;23.10;99.90
44773;DHT22;30492;52.088;5.122;2022-07-03T10:41:30;23.10;99.90
44773;DHT22;30492;52.088;5.122;2022-07-03T10:45:07;23.10;99.90
44773;DHT22;30492;52.088;5.122;2022-07-03T10:48:12;22.90;99.90
44773;DHT22;30492;52.088;5.122;2022-07-03T10:51:20;22.80;99.90
44773;DHT22;30492;52.088;5.122;2022-07-03T10:54:26;22.70;99.90
44773;DHT22;30492;52.088;5.122;2022-07-03T10:57:31;22.70;99.90
44773;DHT22;30492;52.088;5.122;2022-07-03T11:00:51;22.70;99.90
44773;DHT22;30492;52.088;5.122;2022-07-03T11:03:58;22.60;99.90
44773;DHT22;30492;52.088;5.122;2022-07-03T11:07:11;22.60;99.90
44773;DHT22;30492;52.088;5.122;2022-07-03T11:10:33;22.60;99.90
44773;DHT22;30492;52.088;5.122;2022-07-03T11:14:18;22.70;99.90
44773;DHT22;30492;52.088;5.122;2022-07-03T11:17:23;22.90;99.90
44773;DHT22;30492;52.088;5.122;2022-07-03T11:20:29;23.00;99.90
44773;DHT22;30492;52.088;5.122;2022-07-03T11:23:41;23.10;99.90
44773;DHT22;30492;52.088;5.122;2022-07-03T11:27:13;23.30;99.90
44773;DHT22;30492;52.088;5.122;2022-07-03T11:30:20;23.20;99.90
44773;DHT22;30492;52.088;5.122;2022-07-03T11:33:42;23.10;99.90
44773;DHT22;30492;52.088;5.122;2022-07-03T11:36:47;22.90;99.90
44773;DHT22;30492;52.088;5.122;2022-07-03T11:39:55;22.80;99.90
44773;DHT22;30492;52.088;5.122;2022-07-03T11:43:02;22.90;99.90
44773;DHT22;30492;52.088;5.122;2022-07-03T11:46:07;23.10;99.90
44773;DHT22;30492;52.088;5.122;2022-07-03T11:49:13;23.10;99.90
44773;DHT22;30492;52.088;5.122;2022-07-03T11:52:31;23.10;99.90
44773;DHT22;30492;52.088;5.122;2022-07-03T11:55:47;23.10;99.90
44773;DHT22;30492;52.088;5.122;2022-07-03T11:58:53;23.20;99.90
44773;DHT22;30492;52.088;5.122;2022-07-03T12:02:03;23.20;99.90
44773;DHT22;30492;52.088;5.122;2022-07-03T12:05:13;23.20;99.90
44773;DHT22;30492;52.088;5.122;2022-07-03T12:08:27;23.00;99.90
44773;DHT22;30492;52.088;5.122;2022-07-03T12:11:34;22.80;99.90
44773;DHT22;30492;52.088;5.122;2022-07-03T12:14:42;22.70;99.90
44773;DHT22;30492;52.088;5.122;2022-07-03T12:17:48;22.70;99.90
44773;DHT22;30492;52.088;5.122;2022-07-03T12:20:54;22.70;99.90
44773;DHT22;30492;52.088;5.122;2022-07-03T12:23:59;22.70;99.90
44773;DHT22;30492;52.088;5.122;2022-07-03T12:27:05;22.70;99.90
44773;DHT22;30492;52.088;5.122;2022-07-03T12:30:13;22.70;99.90
44773;DHT22;30492;52.088;5.122;2022-07-03T12:33:22;22.70;99.90
44773;DHT22;30492;52.088;5.122;2022-07-03T12:36:28;22.80;99.90
44773;DHT22;30492;52.088;5.122;2022-07-03T12:39:41;23.00;99.90
44773;DHT22;30492;52.088;5.122;2022-07-03T12:42:49;23.20;99.90
44773;DHT22;30492;52.088;5.122;2022-07-03T12:45:55;23.40;99.90
44773;DHT22;30492;52.088;5.122;2022-07-03T12:49:08;23.50;99.90
44773;DHT22;30492;52.088;5.122;2022-07-03T12:52:13;23.70;99.90
44773;DHT22;30492;52.088;5.122;2022-07-03T12:55:23;23.80;99.90
44773;DHT22;30492;52.088;5.122;2022-07-03T12:58:29;23.80;99.90
44773;DHT22;30492;52.088;5.122;2022-07-03T13:02:03;23.70;99.90
44773;DHT22;30492;52.088;5.122;2022-07-03T13:05:17;23.50;99.90
44773;DHT22;30492;52.088;5.122;2022-07-03T13:08:22;23.30;99.90
44773;DHT22;30492;52.088;5.122;2022-07-03T13:11:30;23.20;99.90
44773;DHT22;30492;52.088;5.122;2022-07-03T13:14:37;23.20;99.90
44773;DHT22;30492;52.088;5.122;2022-07-03T13:18:06;23.20;99.90
44773;DHT22;30492;52.088;5.122;2022-07-03T13:21:16;23.20;99.90
44773;DHT22;30492;52.088;5.122;2022-07-03T13:24:22;23.30;99.90
44773;DHT22;30492;52.088;5.122;2022-07-03T13:27:27;23.30;99.90
44773;DHT22;30492;52.088;5.122;2022-07-03T13:30:33;23.40;99.90
44773;DHT22;30492;52.088;5.122;2022-07-03T13:33:38;23.30;99.90
44773;DHT22;30492;52.088;5.122;2022-07-03T13:36:43;23.40;99.90
44773;DHT22;30492;52.088;5.122;2022-07-03T13:39:48;23.40;99.90
44773;DHT22;30492;52.088;5.122;2022-07-03T13:42:53;23.50;99.90
44773;DHT22;30492;52.088;5.122;2022-07-03T13:45:59;23.60;99.90
44773;DHT22;30492;52.088;5.122;2022-07-03T13:49:05;23.70;99.90
44773;DHT22;30492;52.088;5.122;2022-07-03T13:52:12;23.90;99.90
44773;DHT22;30492;52.088;5.122;2022-07-03T13:55:17;24.10;99.90
44773;DHT22;30492;52.088;5.122;2022-07-03T13:58:22;24.10;99.90
44773;DHT22;30492;52.088;5.122;2022-07-03T14:01:29;24.10;99.90
44773;DHT22;30492;52.088;5.122;2022-07-03T14:04:34;24.00;99.90
44773;DHT22;30492;52.088;5.122;2022-07-03T14:07:39;24.00;99.90
44773;DHT22;30492;52.088;5.122;2022-07-03T14:10:45;23.90;99.90
44773;DHT22;30492;52.088;5.122;2022-07-03T14:13:50;23.80;99.90
44773;DHT22;30492;52.088;5.122;2022-07-03T14:16:56;23.70;99.90
44773;DHT22;30492;52.088;5.122;2022-07-03T14:20:02;23.70;99.90
44773;DHT22;30492;52.088;5.122;2022-07-03T14:23:07;23.70;99.90
44773;DHT22;30492;52.088;5.122;2022-07-03T14:26:12;23.60;99.90
44773;DHT22;30492;52.088;5.122;2022-07-03T14:29:17;23.50;99.90
44773;DHT22;30492;52.088;5.122;2022-07-03T14:32:41;23.40;99.90
44773;DHT22;30492;52.088;5.122;2022-07-03T14:35:46;23.50;99.90
44773;DHT22;30492;52.088;5.122;2022-07-03T14:38:51;23.60;99.90
44773;DHT22;30492;52.088;5.122;2022-07-03T14:41:56;23.60;99.90
44773;DHT22;30492;52.088;5.122;2022-07-03T14:45:01;23.50;99.90
44773;DHT22;30492;52.088;5.122;2022-07-03T14:48:07;23.60;99.90
44773;DHT22;30492;52.088;5.122;2022-07-03T14:51:12;23.50;99.90
44773;DHT22;30492;52.088;5.122;2022-07-03T14:54:19;23.50;99.90
44773;DHT22;30492;52.088;5.122;2022-07-03T14:57:26;23.60;99.90
44773;DHT22;30492;52.088;5.122;2022-07-03T15:00:41;23.60;99.90
44773;DHT22;30492;52.088;5.122;2022-07-03T15:03:56;23.60;99.90
44773;DHT22;30492;52.088;5.122;2022-07-03T15:07:05;23.70;99.90
44773;DHT22;30492;52.088;5.122;2022-07-03T15:10:11;23.70;99.90
44773;DHT22;30492;52.088;5.122;2022-07-03T15:13:18;23.70;99.90
44773;DHT22;30492;52.088;5.122;2022-07-03T15:16:24;23.80;99.90
44773;DHT22;30492;52.088;5.122;2022-07-03T15:19:33;23.70;99.90
44773;DHT22;30492;52.088;5.122;2022-07-03T15:22:39;23.80;99.90
44773;DHT22;30492;52.088;5.122;2022-07-03T15:25:47;23.80;99.90
44773;DHT22;30492;52.088;5.122;2022-07-03T15:28:53;23.80;99.90
44773;DHT22;30492;52.088;5.122;2022-07-03T15:32:01;23.90;99.90
44773;DHT22;30492;52.088;5.122;2022-07-03T15:35:09;23.90;99.90
44773;DHT22;30492;52.088;5.122;2022-07-03T15:38:14;24.00;99.90
44773;DHT22;30492;52.088;5.122;2022-07-03T15:41:26;24.00;99.90
44773;DHT22;30492;52.088;5.122;2022-07-03T15:44:38;24.00;99.90
44773;DHT22;30492;52.088;5.122;2022-07-03T15:47:49;23.80;99.90
44773;DHT22;30492;52.088;5.122;2022-07-03T15:51:05;23.70;99.90
44773;DHT22;30492;52.088;5.122;2022-07-03T15:54:25;23.70;99.90
44773;DHT22;30492;52.088;5.122;2022-07-03T15:57:45;23.80;99.90
44773;DHT22;30492;52.088;5.122;2022-07-03T16:00:53;23.80;99.90
44773;DHT22;30492;52.088;5.122;2022-07-03T16:04:18;23.90;99.90
44773;DHT22;30492;52.088;5.122;2022-07-03T16:07:29;24.00;99.90
44773;DHT22;30492;52.088;5.122;2022-07-03T16:10:36;24.00;99.90
44773;DHT22;30492;52.088;5.122;2022-07-03T16:13:41;24.10;99.90
44773;DHT22;30492;52.088;5.122;2022-07-03T16:16:49;24.10;99.90
44773;DHT22;30492;52.088;5.122;2022-07-03T16:19:55;24.20;99.90
44773;DHT22;30492;52.088;5.122;2022-07-03T16:23:05;24.30;99.90
44773;DHT22;30492;52.088;5.122;2022-07-03T16:26:10;24.20;99.90
44773;DHT22;30492;52.088;5.122;2022-07-03T16:29:17;24.20;99.90
44773;DHT22;30492;52.088;5.122;2022-07-03T16:32:28;24.20;99.90
44773;DHT22;30492;52.088;5.122;2022-07-03T16:35:40;24.20;99.90
44773;DHT22;30492;52.088;5.122;2022-07-03T16:38:51;24.10;99.90
44773;DHT22;30492;52.088;5.122;2022-07-03T16:41:59;24.00;99.90
44773;DHT22;30492;52.088;5.122;2022-07-03T16:45:09;23.90;99.90
44773;DHT22;30492;52.088;5.122;2022-07-03T16:52:00;23.90;99.90
44773;DHT22;30492;52.088;5.122;2022-07-03T16:55:10;23.70;99.90
44773;DHT22;30492;52.088;5.122;2022-07-03T16:58:22;23.70;99.90
44773;DHT22;30492;52.088;5.122;2022-07-03T17:01:41;23.60;99.90
44773;DHT22;30492;52.088;5.122;2022-07-03T17:05:18;23.50;99.90
44773;DHT22;30492;52.088;5.122;2022-07-03T17:08:45;23.50;99.90
44773;DHT22;30492;52.088;5.122;2022-07-03T17:11:57;23.60;99.90
44773;DHT22;30492;52.088;5.122;2022-07-03T17:15:13;23.60;99.90
44773;DHT22;30492;52.088;5.122;2022-07-03T17:18:32;23.60;99.90
44773;DHT22;30492;52.088;5.122;2022-07-03T17:21:49;23.50;99.90
44773;DHT22;30492;52.088;5.122;2022-07-03T17:25:11;23.40;99.90
44773;DHT22;30492;52.088;5.122;2022-07-03T17:28:38;23.30;99.90
44773;DHT22;30492;52.088;5.122;2022-07-03T17:32:11;23.30;99.90
44773;DHT22;30492;52.088;5.122;2022-07-03T17:35:29;23.40;99.90
44773;DHT22;30492;52.088;5.122;2022-07-03T17:42:18;23.30;99.90
44773;DHT22;30492;52.088;5.122;2022-07-03T17:45:51;23.20;99.90
44773;DHT22;30492;52.088;5.122;2022-07-03T17:49:05;23.20;99.90
44773;DHT22;30492;52.088;5.122;2022-07-03T17:52:19;23.20;99.90
44773;DHT22;30492;52.088;5.122;2022-07-03T17:55:36;23.20;99.90
44773;DHT22;30492;52.088;5.122;2022-07-03T17:58:50;23.10;99.90
44773;DHT22;30492;52.088;5.122;2022-07-03T18:02:07;23.10;99.90
44773;DHT22;30492;52.088;5.122;2022-07-03T18:05:28;23.00;99.90
44773;DHT22;30492;52.088;5.122;2022-07-03T18:08:55;22.90;99.90
44773;DHT22;30492;52.088;5.122;2022-07-03T18:12:10;22.80;99.90
44773;DHT22;30492;52.088;5.122;2022-07-03T18:15:37;22.80;99.90
44773;DHT22;30492;52.088;5.122;2022-07-03T18:18:56;22.70;99.90
44773;DHT22;30492;52.088;5.122;2022-07-03T18:22:15;22.60;99.90
44773;DHT22;30492;52.088;5.122;2022-07-03T18:25:28;22.50;99.90
44773;DHT22;30492;52.088;5.122;2022-07-03T18:28:38;22.40;99.90
44773;DHT22;30492;52.088;5.122;2022-07-03T18:31:46;22.50;99.90
44773;DHT22;30492;52.088;5.122;2022-07-03T18:34:55;22.50;99.90
44773;DHT22;30492;52.088;5.122;2022-07-03T18:38:08;22.50;99.90
44773;DHT22;30492;52.088;5.122;2022-07-03T18:41:17;22.50;99.90
44773;DHT22;30492;52.088;5.122;2022-07-03T18:44:32;22.60;99.90
44773;DHT22;30492;52.088;5.122;2022-07-03T18:47:40;22.50;99.90
44773;DHT22;30492;52.088;5.122;2022-07-03T18:50:50;22.50;99.90
44773;DHT22;30492;52.088;5.122;2022-07-03T18:54:06;22.50;99.90
44773;DHT22;30492;52.088;5.122;2022-07-03T18:57:19;22.40;99.90
44773;DHT22;30492;52.088;5.122;2022-07-03T19:00:33;22.30;99.90
44773;DHT22;30492;52.088;5.122;2022-07-03T19:04:09;22.30;99.90
44773;DHT22;30492;52.088;5.122;2022-07-03T19:07:27;22.30;99.90
44773;DHT22;30492;52.088;5.122;2022-07-03T19:11:01;22.30;99.90
44773;DHT22;30492;52.088;5.122;2022-07-03T19:14:32;22.30;99.90
44773;DHT22;30492;52.088;5.122;2022-07-03T19:17:40;22.20;99.90
44773;DHT22;30492;52.088;5.122;2022-07-03T19:20:48;22.20;99.90
44773;DHT22;30492;52.088;5.122;2022-07-03T19:24:00;22.10;99.90
44773;DHT22;30492;52.088;5.122;2022-07-03T19:27:15;22.10;99.90
44773;DHT22;30492;52.088;5.122;2022-07-03T19:30:40;22.10;99.90
44773;DHT22;30492;52.088;5.122;2022-07-03T19:33:26;22.10;99.90
44773;DHT22;30492;52.088;5.122;2022-07-03T19:36:53;22.00;99.90
44773;DHT22;30492;52.088;5.122;2022-07-03T19:40:04;21.80;99.90
44773;DHT22;30492;52.088;5.122;2022-07-03T19:43:11;21.70;99.90
44773;DHT22;30492;52.088;5.122;2022-07-03T19:46:16;21.40;99.90
44773;DHT22;30492;52.088;5.122;2022-07-03T19:49:34;21.30;99.90
44773;DHT22;30492;52.088;5.122;2022-07-03T19:52:49;21.30;99.90
44773;DHT22;30492;52.088;5.122;2022-07-03T19:56:03;21.40;99.90
44773;DHT22;30492;52.088;5.122;2022-07-03T19:59:11;21.40;99.90
44773;DHT22;30492;52.088;5.122;2022-07-03T20:02:30;21.30;99.90
44773;DHT22;30492;52.088;5.122;2022-07-03T20:05:46;21.30;99.90